Ontario, Oregon
Current Conditions -  °F | °C
As of 5:06 AM on Friday 28 Nov 2014 (Local Time) from KONO Reporting Station
Moderate Fog Moderate Fog  
Wind Chill: 37°   Ceiling: 200
Heat Index: 37°   Visibility: 0.5mi
Dew Point: 36°   Wind: 0mph
Humidity: 96%   Direction: NA
Pressure: 29.92"   Gusts: NA
Location:  44.03°N, 116.96°W
Report Text: KONO 281206Z AUTO 00000KT 1/2SM FG VV002 03/02 A2992 RMK AO2 T00280022
Loading
Personal Weather Stations






























Interactive Weather Map New forecast layout! Learn more

10-Day Weather Forecast

Advertisements
Track Severe Weather on mobile